sensor_id;sensor_type;location;lat;lon;timestamp;temperature;humidity
19974;DHT22;10148;47.694;9.442;2022-09-09T00:04:30;15.70;99.90
19974;DHT22;10148;47.694;9.442;2022-09-09T00:12:24;15.70;99.90
19974;DHT22;10148;47.694;9.442;2022-09-09T00:15:00;15.70;99.90
19974;DHT22;10148;47.694;9.442;2022-09-09T00:17:40;15.70;99.90
19974;DHT22;10148;47.694;9.442;2022-09-09T00:23:12;15.60;99.90
19974;DHT22;10148;47.694;9.442;2022-09-09T00:26:09;15.50;99.90
19974;DHT22;10148;47.694;9.442;2022-09-09T00:28:45;15.50;99.90
19974;DHT22;10148;47.694;9.442;2022-09-09T00:31:23;15.40;99.90
19974;DHT22;10148;47.694;9.442;2022-09-09T00:33:50;15.30;99.90
19974;DHT22;10148;47.694;9.442;2022-09-09T00:36:20;15.20;99.90
19974;DHT22;10148;47.694;9.442;2022-09-09T00:38:52;15.10;99.90
19974;DHT22;10148;47.694;9.442;2022-09-09T00:44:30;15.00;99.90
19974;DHT22;10148;47.694;9.442;2022-09-09T00:47:25;15.00;99.90
19974;DHT22;10148;47.694;9.442;2022-09-09T00:50:31;15.10;99.90
19974;DHT22;10148;47.694;9.442;2022-09-09T00:55:36;15.20;99.90
19974;DHT22;10148;47.694;9.442;2022-09-09T00:58:07;15.30;99.90
19974;DHT22;10148;47.694;9.442;2022-09-09T01:01:08;15.30;99.90
19974;DHT22;10148;47.694;9.442;2022-09-09T01:03:42;15.40;99.90
19974;DHT22;10148;47.694;9.442;2022-09-09T01:06:34;15.50;99.90
19974;DHT22;10148;47.694;9.442;2022-09-09T01:17:13;15.40;99.90
19974;DHT22;10148;47.694;9.442;2022-09-09T01:27:48;15.30;99.90
19974;DHT22;10148;47.694;9.442;2022-09-09T01:30:16;15.40;99.90
19974;DHT22;10148;47.694;9.442;2022-09-09T01:32:52;15.30;99.90
19974;DHT22;10148;47.694;9.442;2022-09-09T01:35:57;15.30;99.90
19974;DHT22;10148;47.694;9.442;2022-09-09T01:38:26;15.30;99.90
19974;DHT22;10148;47.694;9.442;2022-09-09T01:40:53;15.20;99.90
19974;DHT22;10148;47.694;9.442;2022-09-09T01:43:21;15.20;99.90
19974;DHT22;10148;47.694;9.442;2022-09-09T01:45:49;15.10;99.90
19974;DHT22;10148;47.694;9.442;2022-09-09T01:48:17;15.10;99.90
19974;DHT22;10148;47.694;9.442;2022-09-09T01:50:44;15.10;99.90
19974;DHT22;10148;47.694;9.442;2022-09-09T01:53:10;15.10;99.90
19974;DHT22;10148;47.694;9.442;2022-09-09T01:55:44;15.10;99.90
19974;DHT22;10148;47.694;9.442;2022-09-09T02:02:17;15.10;99.90
19974;DHT22;10148;47.694;9.442;2022-09-09T02:04:43;15.00;99.90
19974;DHT22;10148;47.694;9.442;2022-09-09T02:07:28;14.90;99.90
19974;DHT22;10148;47.694;9.442;2022-09-09T02:10:28;14.90;99.90
19974;DHT22;10148;47.694;9.442;2022-09-09T02:13:08;14.90;99.90
19974;DHT22;10148;47.694;9.442;2022-09-09T02:15:43;14.90;99.90
19974;DHT22;10148;47.694;9.442;2022-09-09T02:18:12;14.90;99.90
19974;DHT22;10148;47.694;9.442;2022-09-09T02:20:39;14.90;99.90
19974;DHT22;10148;47.694;9.442;2022-09-09T02:23:07;14.90;99.90
19974;DHT22;10148;47.694;9.442;2022-09-09T02:25:35;14.90;99.90
19974;DHT22;10148;47.694;9.442;2022-09-09T02:28:01;14.90;99.90
19974;DHT22;10148;47.694;9.442;2022-09-09T02:30:29;14.90;99.90
19974;DHT22;10148;47.694;9.442;2022-09-09T02:32:58;14.90;99.90
19974;DHT22;10148;47.694;9.442;2022-09-09T02:35:26;14.90;99.90
19974;DHT22;10148;47.694;9.442;2022-09-09T02:37:55;14.90;99.90
19974;DHT22;10148;47.694;9.442;2022-09-09T02:40:22;14.90;99.90
19974;DHT22;10148;47.694;9.442;2022-09-09T02:42:49;14.90;99.90
19974;DHT22;10148;47.694;9.442;2022-09-09T02:45:20;14.90;99.90
19974;DHT22;10148;47.694;9.442;2022-09-09T02:50:34;14.80;99.90
19974;DHT22;10148;47.694;9.442;2022-09-09T02:53:16;14.90;99.90
19974;DHT22;10148;47.694;9.442;2022-09-09T02:58:15;14.50;99.90
19974;DHT22;10148;47.694;9.442;2022-09-09T03:00:49;14.40;99.90
19974;DHT22;10148;47.694;9.442;2022-09-09T03:03:16;14.30;99.90
19974;DHT22;10148;47.694;9.442;2022-09-09T03:05:42;14.20;99.90
19974;DHT22;10148;47.694;9.442;2022-09-09T03:08:08;14.20;99.90
19974;DHT22;10148;47.694;9.442;2022-09-09T03:10:34;14.20;99.90
19974;DHT22;10148;47.694;9.442;2022-09-09T03:13:00;14.10;99.90
19974;DHT22;10148;47.694;9.442;2022-09-09T03:15:26;14.10;99.90
19974;DHT22;10148;47.694;9.442;2022-09-09T03:17:55;14.00;99.90
19974;DHT22;10148;47.694;9.442;2022-09-09T03:20:23;14.00;99.90
19974;DHT22;10148;47.694;9.442;2022-09-09T03:22:48;14.10;99.90
19974;DHT22;10148;47.694;9.442;2022-09-09T03:25:14;14.20;99.90
19974;DHT22;10148;47.694;9.442;2022-09-09T03:27:39;14.30;99.90
19974;DHT22;10148;47.694;9.442;2022-09-09T03:30:06;14.40;99.90
19974;DHT22;10148;47.694;9.442;2022-09-09T03:32:32;14.40;99.90
19974;DHT22;10148;47.694;9.442;2022-09-09T03:34:57;14.50;99.90
19974;DHT22;10148;47.694;9.442;2022-09-09T03:37:23;14.60;99.90
19974;DHT22;10148;47.694;9.442;2022-09-09T03:39:49;14.60;99.90
19974;DHT22;10148;47.694;9.442;2022-09-09T03:42:15;14.70;99.90
19974;DHT22;10148;47.694;9.442;2022-09-09T03:44:44;14.70;99.90
19974;DHT22;10148;47.694;9.442;2022-09-09T03:47:10;14.70;99.90
19974;DHT22;10148;47.694;9.442;2022-09-09T03:49:35;14.80;99.90
19974;DHT22;10148;47.694;9.442;2022-09-09T03:52:01;14.80;99.90
19974;DHT22;10148;47.694;9.442;2022-09-09T03:54:27;14.80;99.90
19974;DHT22;10148;47.694;9.442;2022-09-09T03:56:52;14.80;99.90
19974;DHT22;10148;47.694;9.442;2022-09-09T03:59:18;14.80;99.90
19974;DHT22;10148;47.694;9.442;2022-09-09T04:01:44;14.80;99.90
19974;DHT22;10148;47.694;9.442;2022-09-09T04:04:10;14.80;99.90
19974;DHT22;10148;47.694;9.442;2022-09-09T04:06:37;14.90;99.90
19974;DHT22;10148;47.694;9.442;2022-09-09T04:09:02;14.90;99.90
19974;DHT22;10148;47.694;9.442;2022-09-09T04:11:28;14.90;99.90
19974;DHT22;10148;47.694;9.442;2022-09-09T04:13:54;14.90;99.90
19974;DHT22;10148;47.694;9.442;2022-09-09T04:16:19;14.90;99.90
19974;DHT22;10148;47.694;9.442;2022-09-09T04:18:46;14.90;99.90
19974;DHT22;10148;47.694;9.442;2022-09-09T04:21:11;14.90;99.90
19974;DHT22;10148;47.694;9.442;2022-09-09T04:23:38;14.80;99.90
19974;DHT22;10148;47.694;9.442;2022-09-09T04:26:05;14.80;99.90
19974;DHT22;10148;47.694;9.442;2022-09-09T04:28:34;14.80;99.90
19974;DHT22;10148;47.694;9.442;2022-09-09T04:31:05;14.80;99.90
19974;DHT22;10148;47.694;9.442;2022-09-09T04:33:31;14.80;99.90
19974;DHT22;10148;47.694;9.442;2022-09-09T04:35:57;14.80;99.90
19974;DHT22;10148;47.694;9.442;2022-09-09T04:38:22;14.80;99.90
19974;DHT22;10148;47.694;9.442;2022-09-09T04:40:49;14.80;99.90
19974;DHT22;10148;47.694;9.442;2022-09-09T04:43:16;14.90;99.90
19974;DHT22;10148;47.694;9.442;2022-09-09T04:45:43;14.90;99.90
19974;DHT22;10148;47.694;9.442;2022-09-09T04:48:09;14.90;99.90
19974;DHT22;10148;47.694;9.442;2022-09-09T04:50:37;15.00;99.90
19974;DHT22;10148;47.694;9.442;2022-09-09T04:53:03;15.00;99.90
19974;DHT22;10148;47.694;9.442;2022-09-09T04:55:30;15.00;99.90
19974;DHT22;10148;47.694;9.442;2022-09-09T04:57:56;15.00;99.90
19974;DHT22;10148;47.694;9.442;2022-09-09T05:00:23;15.00;99.90
19974;DHT22;10148;47.694;9.442;2022-09-09T05:02:49;15.00;99.90
19974;DHT22;10148;47.694;9.442;2022-09-09T05:05:15;15.00;99.90
19974;DHT22;10148;47.694;9.442;2022-09-09T05:07:40;15.00;99.90
19974;DHT22;10148;47.694;9.442;2022-09-09T05:10:07;15.00;99.90
19974;DHT22;10148;47.694;9.442;2022-09-09T05:12:32;15.00;99.90
19974;DHT22;10148;47.694;9.442;2022-09-09T05:14:58;15.00;99.90
19974;DHT22;10148;47.694;9.442;2022-09-09T05:17:24;15.00;99.90
19974;DHT22;10148;47.694;9.442;2022-09-09T05:19:49;15.00;99.90
19974;DHT22;10148;47.694;9.442;2022-09-09T05:22:21;15.00;99.90
19974;DHT22;10148;47.694;9.442;2022-09-09T05:24:49;15.00;99.90
19974;DHT22;10148;47.694;9.442;2022-09-09T05:27:17;15.00;99.90
19974;DHT22;10148;47.694;9.442;2022-09-09T05:29:43;15.00;99.90
19974;DHT22;10148;47.694;9.442;2022-09-09T05:32:10;15.00;99.90
19974;DHT22;10148;47.694;9.442;2022-09-09T05:34:35;15.00;99.90
19974;DHT22;10148;47.694;9.442;2022-09-09T05:37:02;15.00;99.90
19974;DHT22;10148;47.694;9.442;2022-09-09T05:39:28;14.90;99.90
19974;DHT22;10148;47.694;9.442;2022-09-09T05:41:55;15.00;99.90
19974;DHT22;10148;47.694;9.442;2022-09-09T05:44:20;14.90;99.90
19974;DHT22;10148;47.694;9.442;2022-09-09T05:46:48;14.90;99.90
19974;DHT22;10148;47.694;9.442;2022-09-09T05:49:14;14.90;99.90
19974;DHT22;10148;47.694;9.442;2022-09-09T05:51:40;14.90;99.90
19974;DHT22;10148;47.694;9.442;2022-09-09T05:54:08;14.90;99.90
19974;DHT22;10148;47.694;9.442;2022-09-09T05:56:33;14.90;99.90
19974;DHT22;10148;47.694;9.442;2022-09-09T05:58:59;14.90;99.90
19974;DHT22;10148;47.694;9.442;2022-09-09T06:01:31;15.00;99.90
19974;DHT22;10148;47.694;9.442;2022-09-09T06:03:57;15.00;99.90
19974;DHT22;10148;47.694;9.442;2022-09-09T06:06:25;15.00;99.90
19974;DHT22;10148;47.694;9.442;2022-09-09T06:08:53;15.00;99.90
19974;DHT22;10148;47.694;9.442;2022-09-09T06:11:21;15.00;99.90
19974;DHT22;10148;47.694;9.442;2022-09-09T06:13:48;15.00;99.90
19974;DHT22;10148;47.694;9.442;2022-09-09T06:16:18;14.90;99.90
19974;DHT22;10148;47.694;9.442;2022-09-09T06:18:44;14.90;99.90
19974;DHT22;10148;47.694;9.442;2022-09-09T06:21:17;15.00;99.90
19974;DHT22;10148;47.694;9.442;2022-09-09T06:23:43;15.10;99.90
19974;DHT22;10148;47.694;9.442;2022-09-09T06:26:23;15.00;99.90
19974;DHT22;10148;47.694;9.442;2022-09-09T06:28:51;15.00;99.90
19974;DHT22;10148;47.694;9.442;2022-09-09T06:31:19;15.00;99.90
19974;DHT22;10148;47.694;9.442;2022-09-09T06:33:53;14.90;99.90
19974;DHT22;10148;47.694;9.442;2022-09-09T06:36:21;14.90;99.90
19974;DHT22;10148;47.694;9.442;2022-09-09T06:38:47;14.90;99.90
19974;DHT22;10148;47.694;9.442;2022-09-09T06:41:15;14.90;99.90
19974;DHT22;10148;47.694;9.442;2022-09-09T06:43:41;14.90;99.90
19974;DHT22;10148;47.694;9.442;2022-09-09T06:46:20;14.90;99.90
19974;DHT22;10148;47.694;9.442;2022-09-09T06:48:50;14.90;99.90
19974;DHT22;10148;47.694;9.442;2022-09-09T06:51:20;15.00;99.90
19974;DHT22;10148;47.694;9.442;2022-09-09T06:53:53;15.00;99.90
19974;DHT22;10148;47.694;9.442;2022-09-09T06:56:34;15.00;99.90
19974;DHT22;10148;47.694;9.442;2022-09-09T06:59:01;15.10;99.90
19974;DHT22;10148;47.694;9.442;2022-09-09T07:01:31;15.20;99.90
19974;DHT22;10148;47.694;9.442;2022-09-09T07:03:58;15.20;99.90
19974;DHT22;10148;47.694;9.442;2022-09-09T07:06:31;15.20;99.90
19974;DHT22;10148;47.694;9.442;2022-09-09T07:08:59;15.30;99.90
19974;DHT22;10148;47.694;9.442;2022-09-09T07:11:28;15.30;99.90
19974;DHT22;10148;47.694;9.442;2022-09-09T07:13:54;15.40;99.90
19974;DHT22;10148;47.694;9.442;2022-09-09T07:16:21;15.40;99.90
19974;DHT22;10148;47.694;9.442;2022-09-09T07:18:50;15.40;99.90
19974;DHT22;10148;47.694;9.442;2022-09-09T07:21:16;15.50;99.90
19974;DHT22;10148;47.694;9.442;2022-09-09T07:23:42;15.60;99.90
19974;DHT22;10148;47.694;9.442;2022-09-09T07:26:16;15.60;99.90
19974;DHT22;10148;47.694;9.442;2022-09-09T07:28:42;15.70;99.90
19974;DHT22;10148;47.694;9.442;2022-09-09T07:31:23;15.80;99.90
19974;DHT22;10148;47.694;9.442;2022-09-09T07:33:49;15.70;99.90
19974;DHT22;10148;47.694;9.442;2022-09-09T07:36:17;15.80;99.90
19974;DHT22;10148;47.694;9.442;2022-09-09T07:38:45;15.80;99.90
19974;DHT22;10148;47.694;9.442;2022-09-09T07:41:32;15.80;99.90
19974;DHT22;10148;47.694;9.442;2022-09-09T07:44:03;15.90;99.90
19974;DHT22;10148;47.694;9.442;2022-09-09T07:46:29;16.00;99.90
19974;DHT22;10148;47.694;9.442;2022-09-09T07:48:56;15.90;99.90
19974;DHT22;10148;47.694;9.442;2022-09-09T07:51:28;16.00;99.90
19974;DHT22;10148;47.694;9.442;2022-09-09T07:54:00;16.00;99.90
19974;DHT22;10148;47.694;9.442;2022-09-09T07:56:27;16.10;99.90
19974;DHT22;10148;47.694;9.442;2022-09-09T07:58:55;16.10;99.90
19974;DHT22;10148;47.694;9.442;2022-09-09T08:01:26;16.10;99.90
19974;DHT22;10148;47.694;9.442;2022-09-09T08:03:55;16.10;99.90
19974;DHT22;10148;47.694;9.442;2022-09-09T08:06:21;16.20;99.90
19974;DHT22;10148;47.694;9.442;2022-09-09T08:08:50;16.20;99.90
19974;DHT22;10148;47.694;9.442;2022-09-09T08:11:16;16.30;99.90
19974;DHT22;10148;47.694;9.442;2022-09-09T08:13:42;16.30;99.90
19974;DHT22;10148;47.694;9.442;2022-09-09T08:16:15;16.40;99.90
19974;DHT22;10148;47.694;9.442;2022-09-09T08:18:41;16.50;99.90
19974;DHT22;10148;47.694;9.442;2022-09-09T08:21:12;16.50;99.90
19974;DHT22;10148;47.694;9.442;2022-09-09T08:23:42;16.60;99.90
19974;DHT22;10148;47.694;9.442;2022-09-09T08:26:13;16.70;99.90
19974;DHT22;10148;47.694;9.442;2022-09-09T08:28:40;16.80;99.90
19974;DHT22;10148;47.694;9.442;2022-09-09T08:31:17;16.90;99.90
19974;DHT22;10148;47.694;9.442;2022-09-09T08:33:44;17.00;99.90
19974;DHT22;10148;47.694;9.442;2022-09-09T08:36:19;17.00;99.90
19974;DHT22;10148;47.694;9.442;2022-09-09T08:38:50;17.00;99.90
19974;DHT22;10148;47.694;9.442;2022-09-09T08:41:28;17.00;99.90
19974;DHT22;10148;47.694;9.442;2022-09-09T08:44:23;17.10;99.90
19974;DHT22;10148;47.694;9.442;2022-09-09T08:50:08;17.50;99.90
19974;DHT22;10148;47.694;9.442;2022-09-09T08:57:52;17.50;99.90
19974;DHT22;10148;47.694;9.442;2022-09-09T09:00:18;17.50;99.90
19974;DHT22;10148;47.694;9.442;2022-09-09T09:03:09;17.50;99.90
19974;DHT22;10148;47.694;9.442;2022-09-09T09:08:39;17.50;99.90
19974;DHT22;10148;47.694;9.442;2022-09-09T09:11:09;17.50;99.90
19974;DHT22;10148;47.694;9.442;2022-09-09T09:13:54;17.50;99.90
19974;DHT22;10148;47.694;9.442;2022-09-09T09:16:29;17.50;99.90
19974;DHT22;10148;47.694;9.442;2022-09-09T09:18:58;17.60;99.90
19974;DHT22;10148;47.694;9.442;2022-09-09T09:21:34;17.80;99.90
19974;DHT22;10148;47.694;9.442;2022-09-09T09:24:01;17.80;99.90
19974;DHT22;10148;47.694;9.442;2022-09-09T09:26:34;17.80;99.90
19974;DHT22;10148;47.694;9.442;2022-09-09T09:29:08;17.90;99.90
19974;DHT22;10148;47.694;9.442;2022-09-09T09:31:35;18.10;99.90
19974;DHT22;10148;47.694;9.442;2022-09-09T09:34:00;18.30;99.90
19974;DHT22;10148;47.694;9.442;2022-09-09T09:36:39;18.50;99.90
19974;DHT22;10148;47.694;9.442;2022-09-09T09:39:06;18.40;99.90
19974;DHT22;10148;47.694;9.442;2022-09-09T09:41:34;18.40;99.90
19974;DHT22;10148;47.694;9.442;2022-09-09T09:44:02;18.40;99.90
19974;DHT22;10148;47.694;9.442;2022-09-09T09:46:28;18.40;99.90
19974;DHT22;10148;47.694;9.442;2022-09-09T09:48:58;18.50;99.90
19974;DHT22;10148;47.694;9.442;2022-09-09T09:51:25;18.70;99.90
19974;DHT22;10148;47.694;9.442;2022-09-09T09:53:51;18.70;99.90
19974;DHT22;10148;47.694;9.442;2022-09-09T09:56:27;18.70;99.90
19974;DHT22;10148;47.694;9.442;2022-09-09T09:58:54;18.80;99.90
19974;DHT22;10148;47.694;9.442;2022-09-09T10:01:24;18.80;99.90
19974;DHT22;10148;47.694;9.442;2022-09-09T10:03:52;18.70;99.90
19974;DHT22;10148;47.694;9.442;2022-09-09T10:06:28;18.70;99.90
19974;DHT22;10148;47.694;9.442;2022-09-09T10:08:54;18.70;99.90
19974;DHT22;10148;47.694;9.442;2022-09-09T10:14:41;18.80;99.90
19974;DHT22;10148;47.694;9.442;2022-09-09T10:20:28;19.10;99.90
19974;DHT22;10148;47.694;9.442;2022-09-09T10:26:00;19.20;99.90
19974;DHT22;10148;47.694;9.442;2022-09-09T10:28:37;19.30;99.90
19974;DHT22;10148;47.694;9.442;2022-09-09T10:36:49;19.20;99.90
19974;DHT22;10148;47.694;9.442;2022-09-09T10:39:34;19.20;99.90
19974;DHT22;10148;47.694;9.442;2022-09-09T10:42:05;19.20;99.90
19974;DHT22;10148;47.694;9.442;2022-09-09T10:45:07;19.20;99.90
19974;DHT22;10148;47.694;9.442;2022-09-09T10:48:01;19.00;99.90
19974;DHT22;10148;47.694;9.442;2022-09-09T10:50:40;18.90;99.90
19974;DHT22;10148;47.694;9.442;2022-09-09T10:53:09;18.70;99.90
19974;DHT22;10148;47.694;9.442;2022-09-09T10:55:43;18.70;99.90
19974;DHT22;10148;47.694;9.442;2022-09-09T10:58:17;18.70;99.90
19974;DHT22;10148;47.694;9.442;2022-09-09T11:00:49;18.70;99.90
19974;DHT22;10148;47.694;9.442;2022-09-09T11:03:23;18.70;99.90
19974;DHT22;10148;47.694;9.442;2022-09-09T11:05:57;18.80;99.90
19974;DHT22;10148;47.694;9.442;2022-09-09T11:08:34;18.90;99.90
19974;DHT22;10148;47.694;9.442;2022-09-09T11:11:04;18.90;99.90
19974;DHT22;10148;47.694;9.442;2022-09-09T11:13:58;19.00;99.90
19974;DHT22;10148;47.694;9.442;2022-09-09T11:19:24;19.60;99.90
19974;DHT22;10148;47.694;9.442;2022-09-09T11:21:54;19.70;99.90
19974;DHT22;10148;47.694;9.442;2022-09-09T11:24:28;19.70;99.90
19974;DHT22;10148;47.694;9.442;2022-09-09T11:27:13;19.50;99.90
19974;DHT22;10148;47.694;9.442;2022-09-09T11:33:16;19.70;99.90
19974;DHT22;10148;47.694;9.442;2022-09-09T11:40:19;19.80;99.90
19974;DHT22;10148;47.694;9.442;2022-09-09T11:42:47;19.70;99.90
19974;DHT22;10148;47.694;9.442;2022-09-09T11:45:21;19.60;99.90
19974;DHT22;10148;47.694;9.442;2022-09-09T11:47:56;19.30;99.90
19974;DHT22;10148;47.694;9.442;2022-09-09T11:52:48;18.70;99.90
19974;DHT22;10148;47.694;9.442;2022-09-09T11:57:46;18.70;99.90
19974;DHT22;10148;47.694;9.442;2022-09-09T12:02:58;18.60;99.90
19974;DHT22;10148;47.694;9.442;2022-09-09T12:05:44;18.80;99.90
19974;DHT22;10148;47.694;9.442;2022-09-09T12:08:15;19.30;99.90
19974;DHT22;10148;47.694;9.442;2022-09-09T12:10:52;19.80;99.90
19974;DHT22;10148;47.694;9.442;2022-09-09T12:13:20;20.20;99.90
19974;DHT22;10148;47.694;9.442;2022-09-09T12:24:09;19.40;99.90
19974;DHT22;10148;47.694;9.442;2022-09-09T12:32:00;19.50;99.90
19974;DHT22;10148;47.694;9.442;2022-09-09T12:39:55;20.00;99.90
19974;DHT22;10148;47.694;9.442;2022-09-09T12:42:22;20.30;99.90
19974;DHT22;10148;47.694;9.442;2022-09-09T12:44:57;20.50;99.90
19974;DHT22;10148;47.694;9.442;2022-09-09T12:47:57;20.80;99.90
19974;DHT22;10148;47.694;9.442;2022-09-09T12:50:25;21.00;99.90
19974;DHT22;10148;47.694;9.442;2022-09-09T12:52:54;21.20;99.90
19974;DHT22;10148;47.694;9.442;2022-09-09T12:55:24;21.30;99.90
19974;DHT22;10148;47.694;9.442;2022-09-09T12:57:51;21.60;99.90
19974;DHT22;10148;47.694;9.442;2022-09-09T13:00:19;21.80;99.90
19974;DHT22;10148;47.694;9.442;2022-09-09T13:02:50;22.10;99.90
19974;DHT22;10148;47.694;9.442;2022-09-09T13:05:19;22.00;99.90
19974;DHT22;10148;47.694;9.442;2022-09-09T13:07:45;22.40;99.90
19974;DHT22;10148;47.694;9.442;2022-09-09T13:10:13;22.70;99.90
19974;DHT22;10148;47.694;9.442;2022-09-09T13:12:40;22.70;99.90
19974;DHT22;10148;47.694;9.442;2022-09-09T13:15:20;22.80;99.90
19974;DHT22;10148;47.694;9.442;2022-09-09T13:18:00;22.70;99.90
19974;DHT22;10148;47.694;9.442;2022-09-09T13:20:27;22.70;99.90
19974;DHT22;10148;47.694;9.442;2022-09-09T13:22:54;22.80;99.90
19974;DHT22;10148;47.694;9.442;2022-09-09T13:25:25;23.00;99.90
19974;DHT22;10148;47.694;9.442;2022-09-09T13:30:23;22.70;99.90
19974;DHT22;10148;47.694;9.442;2022-09-09T13:33:03;22.60;99.90
19974;DHT22;10148;47.694;9.442;2022-09-09T13:35:29;22.90;99.90
19974;DHT22;10148;47.694;9.442;2022-09-09T13:37:55;23.10;99.90
19974;DHT22;10148;47.694;9.442;2022-09-09T13:40:22;23.10;99.90
19974;DHT22;10148;47.694;9.442;2022-09-09T13:42:53;23.20;99.90
19974;DHT22;10148;47.694;9.442;2022-09-09T13:45:22;23.40;99.90
19974;DHT22;10148;47.694;9.442;2022-09-09T13:47:49;23.40;99.90
19974;DHT22;10148;47.694;9.442;2022-09-09T13:50:25;23.40;99.90
19974;DHT22;10148;47.694;9.442;2022-09-09T13:52:55;23.40;99.90
19974;DHT22;10148;47.694;9.442;2022-09-09T13:55:24;23.50;99.90
19974;DHT22;10148;47.694;9.442;2022-09-09T13:57:59;23.50;99.90
19974;DHT22;10148;47.694;9.442;2022-09-09T14:00:32;23.30;99.90
19974;DHT22;10148;47.694;9.442;2022-09-09T14:02:58;23.50;99.90
19974;DHT22;10148;47.694;9.442;2022-09-09T14:05:28;23.70;99.90
19974;DHT22;10148;47.694;9.442;2022-09-09T14:07:55;23.80;99.90
19974;DHT22;10148;47.694;9.442;2022-09-09T14:10:20;23.90;99.90
19974;DHT22;10148;47.694;9.442;2022-09-09T14:12:47;24.00;99.90
19974;DHT22;10148;47.694;9.442;2022-09-09T14:15:13;23.80;99.90
19974;DHT22;10148;47.694;9.442;2022-09-09T14:17:39;23.60;99.90
19974;DHT22;10148;47.694;9.442;2022-09-09T14:20:06;23.50;99.90
19974;DHT22;10148;47.694;9.442;2022-09-09T14:22:34;23.60;99.90
19974;DHT22;10148;47.694;9.442;2022-09-09T14:25:01;23.60;99.90
19974;DHT22;10148;47.694;9.442;2022-09-09T14:27:26;23.90;99.90
19974;DHT22;10148;47.694;9.442;2022-09-09T14:29:52;23.80;99.90
19974;DHT22;10148;47.694;9.442;2022-09-09T14:32:18;23.70;99.90
19974;DHT22;10148;47.694;9.442;2022-09-09T14:34:44;23.80;99.90
19974;DHT22;10148;47.694;9.442;2022-09-09T14:37:09;23.90;99.90
19974;DHT22;10148;47.694;9.442;2022-09-09T14:39:35;24.00;99.90
19974;DHT22;10148;47.694;9.442;2022-09-09T14:42:00;23.80;99.90
19974;DHT22;10148;47.694;9.442;2022-09-09T14:44:27;23.70;99.90
19974;DHT22;10148;47.694;9.442;2022-09-09T14:46:53;23.80;99.90
19974;DHT22;10148;47.694;9.442;2022-09-09T14:49:19;23.90;99.90
19974;DHT22;10148;47.694;9.442;2022-09-09T14:51:45;23.80;99.90
19974;DHT22;10148;47.694;9.442;2022-09-09T14:54:10;23.60;99.90
19974;DHT22;10148;47.694;9.442;2022-09-09T14:56:36;23.20;99.90
19974;DHT22;10148;47.694;9.442;2022-09-09T14:59:02;22.90;99.90
19974;DHT22;10148;47.694;9.442;2022-09-09T15:01:28;23.10;99.90
19974;DHT22;10148;47.694;9.442;2022-09-09T15:03:56;23.10;99.90
19974;DHT22;10148;47.694;9.442;2022-09-09T15:06:24;23.30;99.90
19974;DHT22;10148;47.694;9.442;2022-09-09T15:08:52;23.70;99.90
19974;DHT22;10148;47.694;9.442;2022-09-09T15:11:18;23.70;99.90
19974;DHT22;10148;47.694;9.442;2022-09-09T15:13:45;23.60;99.90
19974;DHT22;10148;47.694;9.442;2022-09-09T15:16:17;23.40;99.90
19974;DHT22;10148;47.694;9.442;2022-09-09T15:18:44;23.10;99.90
19974;DHT22;10148;47.694;9.442;2022-09-09T15:21:15;22.70;99.90
19974;DHT22;10148;47.694;9.442;2022-09-09T15:23:42;22.50;99.90
19974;DHT22;10148;47.694;9.442;2022-09-09T15:26:08;22.30;99.90
19974;DHT22;10148;47.694;9.442;2022-09-09T15:28:36;22.00;99.90
19974;DHT22;10148;47.694;9.442;2022-09-09T15:31:05;21.80;99.90
19974;DHT22;10148;47.694;9.442;2022-09-09T15:33:33;21.30;99.90
19974;DHT22;10148;47.694;9.442;2022-09-09T15:35:59;21.10;99.90
19974;DHT22;10148;47.694;9.442;2022-09-09T15:38:24;21.10;99.90
19974;DHT22;10148;47.694;9.442;2022-09-09T15:40:56;21.30;99.90
19974;DHT22;10148;47.694;9.442;2022-09-09T15:43:22;21.60;99.90
19974;DHT22;10148;47.694;9.442;2022-09-09T15:45:52;22.00;99.90
19974;DHT22;10148;47.694;9.442;2022-09-09T15:48:25;22.40;99.90
19974;DHT22;10148;47.694;9.442;2022-09-09T15:51:02;22.70;99.90
19974;DHT22;10148;47.694;9.442;2022-09-09T15:53:29;22.70;99.90
19974;DHT22;10148;47.694;9.442;2022-09-09T15:55:55;22.50;99.90
19974;DHT22;10148;47.694;9.442;2022-09-09T15:58:21;22.50;99.90
19974;DHT22;10148;47.694;9.442;2022-09-09T16:00:46;22.80;99.90
19974;DHT22;10148;47.694;9.442;2022-09-09T16:03:12;23.10;99.90
19974;DHT22;10148;47.694;9.442;2022-09-09T16:05:38;23.10;99.90
19974;DHT22;10148;47.694;9.442;2022-09-09T16:08:03;23.20;99.90
19974;DHT22;10148;47.694;9.442;2022-09-09T16:10:29;22.90;99.90
19974;DHT22;10148;47.694;9.442;2022-09-09T16:12:56;22.60;99.90
19974;DHT22;10148;47.694;9.442;2022-09-09T16:15:21;22.20;99.90
19974;DHT22;10148;47.694;9.442;2022-09-09T16:17:48;22.10;99.90
19974;DHT22;10148;47.694;9.442;2022-09-09T16:20:14;22.10;99.90
19974;DHT22;10148;47.694;9.442;2022-09-09T16:22:40;22.00;99.90
19974;DHT22;10148;47.694;9.442;2022-09-09T16:25:05;21.80;99.90
19974;DHT22;10148;47.694;9.442;2022-09-09T16:27:31;21.70;99.90
19974;DHT22;10148;47.694;9.442;2022-09-09T16:29:57;21.60;99.90
19974;DHT22;10148;47.694;9.442;2022-09-09T16:32:22;21.50;99.90
19974;DHT22;10148;47.694;9.442;2022-09-09T16:34:48;21.70;99.90
19974;DHT22;10148;47.694;9.442;2022-09-09T16:37:13;21.90;99.90
19974;DHT22;10148;47.694;9.442;2022-09-09T16:39:39;22.20;99.90
19974;DHT22;10148;47.694;9.442;2022-09-09T16:42:04;22.20;99.90
19974;DHT22;10148;47.694;9.442;2022-09-09T16:44:30;22.10;99.90
19974;DHT22;10148;47.694;9.442;2022-09-09T16:46:56;22.10;99.90
19974;DHT22;10148;47.694;9.442;2022-09-09T16:49:21;21.90;99.90
19974;DHT22;10148;47.694;9.442;2022-09-09T16:51:49;21.70;99.90
19974;DHT22;10148;47.694;9.442;2022-09-09T16:54:16;21.30;99.90
19974;DHT22;10148;47.694;9.442;2022-09-09T16:56:44;21.00;99.90
19974;DHT22;10148;47.694;9.442;2022-09-09T16:59:12;20.80;99.90
19974;DHT22;10148;47.694;9.442;2022-09-09T17:01:40;20.80;99.90
19974;DHT22;10148;47.694;9.442;2022-09-09T17:04:09;20.70;99.90
19974;DHT22;10148;47.694;9.442;2022-09-09T17:06:35;20.70;99.90
19974;DHT22;10148;47.694;9.442;2022-09-09T17:09:06;20.80;99.90
19974;DHT22;10148;47.694;9.442;2022-09-09T17:11:33;20.70;99.90
19974;DHT22;10148;47.694;9.442;2022-09-09T17:13:58;20.70;99.90
19974;DHT22;10148;47.694;9.442;2022-09-09T17:16:27;20.70;99.90
19974;DHT22;10148;47.694;9.442;2022-09-09T17:18:53;20.60;99.90
19974;DHT22;10148;47.694;9.442;2022-09-09T17:21:23;20.50;99.90
19974;DHT22;10148;47.694;9.442;2022-09-09T17:23:51;20.40;99.90
19974;DHT22;10148;47.694;9.442;2022-09-09T17:26:19;20.20;99.90
19974;DHT22;10148;47.694;9.442;2022-09-09T17:28:45;20.10;99.90
19974;DHT22;10148;47.694;9.442;2022-09-09T17:31:13;20.00;99.90
19974;DHT22;10148;47.694;9.442;2022-09-09T17:33:47;20.00;99.90
19974;DHT22;10148;47.694;9.442;2022-09-09T17:36:23;19.70;99.90